Time;durP1;ratioP1;P1;durP2;ratioP2;P2;SDS_P1;SDS_P2;PMS_P1;PMS_P2;Temp;Humidity;BMP_temperature;BMP_pressure;BME280_temperature;BME280_humidity;BME280_pressure;Samples;Min_cycle;Max_cycle;Signal;HPM_P1;HPM_P2
2021/09/15 00:01:35;;;;;;;;;0.00;0.00;;;;;28.06;49.41;100250.25;5074342;28;45437;-66
2021/09/15 00:04:01;;;;;;;;;0.00;0.00;;;;;28.05;49.19;100242.13;5074113;28;46203;-67
2021/09/15 00:06:27;;;;;;;;;0.00;0.00;;;;;28.04;49.79;100241.25;5074280;28;45729;-67
2021/09/15 00:08:52;;;;;;;;;0.00;0.00;;;;;28.04;49.39;100229.47;5073879;28;46714;-67
2021/09/15 00:11:19;;;;;;;;;0.00;0.00;;;;;28.04;49.70;100244.00;5074288;28;45743;-67
2021/09/15 00:13:45;;;;;;;;;0.00;0.00;;;;;28.03;49.96;100236.75;5074055;28;45493;-67
2021/09/15 00:16:11;;;;;;;;;0.00;0.00;;;;;28.01;49.90;100229.66;5074358;28;45500;-67
2021/09/15 00:18:37;;;;;;;;;0.00;0.00;;;;;28.01;49.88;100235.13;5073793;28;45519;-67
2021/09/15 00:21:04;;;;;;;;;0.67;0.00;;;;;28.01;49.94;100230.53;5073915;28;45407;-67
2021/09/15 00:23:29;;;;;;;;;0.00;0.00;;;;;28.00;49.99;100233.38;5074018;28;45480;-67
2021/09/15 00:25:54;;;;;;;;;0.00;0.00;;;;;28.01;49.79;100237.84;5074122;28;45312;-67
2021/09/15 00:28:20;;;;;;;;;1.00;0.00;;;;;27.99;49.78;100232.47;5073767;28;45360;-68
2021/09/15 00:30:45;;;;;;;;;0.00;0.00;;;;;27.93;49.71;100219.22;5074119;28;45484;-67
2021/09/15 00:33:11;;;;;;;;;0.67;0.00;;;;;27.98;50.14;100228.00;5074191;28;45430;-67
2021/09/15 00:35:36;;;;;;;;;0.00;0.00;;;;;27.98;49.79;100225.28;5074174;28;45521;-67
2021/09/15 00:38:02;;;;;;;;;0.00;0.00;;;;;27.98;50.02;100219.81;5074161;28;45611;-67
2021/09/15 00:40:27;;;;;;;;;0.00;0.00;;;;;27.98;49.48;100219.81;5055778;28;45751;-67
2021/09/15 00:42:54;;;;;;;;;0.00;0.00;;;;;27.99;50.22;100215.22;5074009;28;45450;-67
2021/09/15 00:45:19;;;;;;;;;0.00;0.00;;;;;27.98;50.00;100211.63;5073915;28;45402;-67
2021/09/15 00:47:45;;;;;;;;;0.00;0.00;;;;;27.99;50.14;100212.47;5073665;28;45420;-67
2021/09/15 00:50:11;;;;;;;;;0.00;0.00;;;;;28.00;50.26;100219.72;5073959;28;45740;-67
2021/09/15 00:52:36;;;;;;;;;0.00;0.00;;;;;27.96;49.63;100209.97;5073766;28;45514;-67
2021/09/15 00:55:02;;;;;;;;;0.00;0.00;;;;;27.99;49.61;100221.56;5073983;28;45408;-67
2021/09/15 00:57:27;;;;;;;;;0.00;0.00;;;;;27.98;49.72;100218.94;5074214;28;45827;-67
2021/09/15 00:59:53;;;;;;;;;0.00;0.00;;;;;27.99;49.50;100227.00;5073827;28;45430;-67
2021/09/15 01:02:18;;;;;;;;;0.00;0.00;;;;;28.00;49.78;100222.44;5075350;28;45669;-69
2021/09/15 01:04:44;;;;;;;;;0.00;0.00;;;;;28.00;50.06;100231.53;5076230;28;45416;-69
2021/09/15 01:07:10;;;;;;;;;0.00;0.00;;;;;28.00;50.13;100222.44;5075606;28;46077;-69
2021/09/15 01:09:36;;;;;;;;;0.00;0.00;;;;;27.96;50.04;100216.31;5075821;28;45847;-69
2021/09/15 01:12:03;;;;;;;;;0.00;0.00;;;;;27.97;50.14;100215.31;5075532;28;45400;-69
2021/09/15 01:14:28;;;;;;;;;0.00;0.00;;;;;28.01;50.21;100219.59;5075351;28;45597;-69
2021/09/15 01:16:59;;;;;;;;;0.00;0.00;;;;;27.98;49.89;100211.63;5075209;28;46009;-69
2021/09/15 01:19:25;;;;;;;;;0.00;0.00;;;;;28.00;49.84;100217.84;5072299;28;45452;-69
2021/09/15 01:21:52;;;;;;;;;0.00;0.00;;;;;28.00;49.94;100223.31;5075982;28;45476;-69
2021/09/15 01:24:18;;;;;;;;;0.00;0.00;;;;;27.99;49.96;100215.22;5056976;28;45543;-69
2021/09/15 01:26:45;;;;;;;;;0.00;0.00;;;;;27.99;49.85;100220.69;5074893;28;45501;-69
2021/09/15 01:29:21;;;;;;;;;0.00;0.00;;;;;27.98;49.67;100219.81;5075072;28;45453;-69
2021/09/15 01:31:58;;;;;;;;;0.00;0.00;;;;;27.97;49.84;100200.78;5075302;28;45490;-69
2021/09/15 01:34:23;;;;;;;;;0.00;0.00;;;;;27.97;49.67;100209.84;5056838;28;45655;-69
2021/09/15 01:36:49;;;;;;;;;0.00;0.00;;;;;27.94;49.75;100201.88;5056531;28;46190;-69
2021/09/15 01:39:15;;;;;;;;;0.00;0.00;;;;;27.96;50.04;100205.38;5056487;28;45485;-69
2021/09/15 01:41:40;;;;;;;;;0.00;0.00;;;;;27.95;49.49;100197.25;5075134;28;45446;-69
2021/09/15 01:44:07;;;;;;;;;0.00;0.00;;;;;27.95;49.78;100198.13;5075173;28;45379;-69
2021/09/15 01:46:32;;;;;;;;;0.00;0.00;;;;;27.95;49.53;100206.34;5056536;28;48196;-69
2021/09/15 01:48:57;;;;;;;;;0.00;0.00;;;;;27.95;50.16;100209.06;5074872;28;45724;-69
2021/09/15 01:51:23;;;;;;;;;0.00;0.00;;;;;27.96;49.61;100205.38;5074840;28;45408;-68
2021/09/15 01:53:48;;;;;;;;;0.00;0.00;;;;;27.90;49.81;100203.06;5074990;28;45402;-68
2021/09/15 01:56:15;;;;;;;;;0.00;0.00;;;;;27.96;50.02;100209.97;5074359;28;45896;-68
2021/09/15 01:58:41;;;;;;;;;0.00;0.00;;;;;27.92;50.05;100209.28;5074760;28;45590;-68
2021/09/15 02:01:07;;;;;;;;;0.00;0.00;;;;;27.94;50.27;100212.78;5074812;28;45402;-68
2021/09/15 02:03:32;;;;;;;;;0.00;0.00;;;;;27.92;49.47;100218.34;5074565;28;45461;-68
2021/09/15 02:05:57;;;;;;;;;0.00;0.00;;;;;27.88;49.99;100200.41;5074543;28;46816;-69
2021/09/15 02:08:23;;;;;;;;;0.00;0.00;;;;;27.92;49.83;100218.34;5074420;28;45562;-68
2021/09/15 02:10:48;;;;;;;;;0.00;0.00;;;;;27.92;49.82;100222.97;5056055;28;45671;-68
2021/09/15 02:13:14;;;;;;;;;0.00;0.00;;;;;27.91;49.75;100229.38;5074717;28;45624;-68
2021/09/15 02:15:40;;;;;;;;;0.00;0.00;;;;;27.92;50.06;100228.41;5074576;28;45420;-68
2021/09/15 02:18:05;;;;;;;;;0.00;0.00;;;;;27.93;50.11;100221.97;5074218;28;45380;-68
2021/09/15 02:20:31;;;;;;;;;0.00;0.00;;;;;27.93;49.91;100228.31;5074810;28;44869;-68
2021/09/15 02:22:56;;;;;;;;;0.00;0.00;;;;;27.91;49.75;100229.38;5074961;28;45461;-68
2021/09/15 02:25:23;;;;;;;;;0.00;0.00;;;;;27.93;49.62;100227.44;5074467;28;45579;-68
2021/09/15 02:27:48;;;;;;;;;0.00;0.00;;;;;27.93;49.71;100232.91;5074357;28;45458;-68
2021/09/15 02:30:14;;;;;;;;;0.00;0.00;;;;;27.92;49.46;100225.69;5074519;28;45393;-68
2021/09/15 02:32:39;;;;;;;;;0.00;0.00;;;;;27.92;50.00;100217.50;5074274;28;45496;-68
2021/09/15 02:35:05;;;;;;;;;0.00;0.00;;;;;27.93;49.72;100221.97;5073792;28;45543;-69
2021/09/15 02:37:31;;;;;;;;;0.00;0.00;;;;;27.92;49.76;100220.22;5074062;28;45550;-68
2021/09/15 02:39:56;;;;;;;;;0.00;0.00;;;;;27.93;49.88;100216.50;5074435;28;45456;-68
2021/09/15 02:42:21;;;;;;;;;0.00;0.00;;;;;27.92;50.01;100222.97;5074529;28;45456;-69
2021/09/15 02:44:47;;;;;;;;;0.00;0.00;;;;;27.92;50.08;100222.97;5074137;28;44987;-68
2021/09/15 02:47:12;;;;;;;;;0.00;0.00;;;;;27.92;50.00;100226.56;5055605;28;45581;-68
2021/09/15 02:49:37;;;;;;;;;0.00;0.00;;;;;27.92;49.93;100231.16;5074182;28;45814;-68
2021/09/15 02:52:03;;;;;;;;;0.00;0.00;;;;;27.92;50.26;100240.22;5073982;28;45480;-68
2021/09/15 02:54:28;;;;;;;;;0.00;0.00;;;;;27.91;49.96;100224.81;5073847;28;46699;-68
2021/09/15 02:56:54;;;;;;;;;0.00;0.00;;;;;27.93;49.88;100232.91;5073830;28;45368;-68
2021/09/15 02:59:19;;;;;;;;;0.00;0.00;;;;;27.91;49.80;100229.38;5073857;28;45204;-68
2021/09/15 03:01:46;;;;;;;;;0.00;0.00;;;;;27.88;49.96;100226.88;5073658;28;45501;-68
2021/09/15 03:04:11;;;;;;;;;0.00;0.00;;;;;27.93;49.50;100220.13;5073876;28;45834;-68
2021/09/15 03:06:37;;;;;;;;;0.00;0.00;;;;;27.93;49.97;100222.88;5073667;28;45374;-68
2021/09/15 03:09:02;;;;;;;;;0.00;0.00;;;;;27.91;49.63;100219.34;5073744;28;45404;-68
2021/09/15 03:11:27;;;;;;;;;0.00;0.00;;;;;27.89;49.44;100217.69;5074104;28;45681;-69
2021/09/15 03:13:54;;;;;;;;;0.00;0.00;;;;;27.93;49.40;100221.97;5073650;28;45894;-69
2021/09/15 03:16:21;;;;;;;;;0.67;0.00;;;;;27.93;49.93;100224.69;5055276;28;45435;-69
2021/09/15 03:18:46;;;;;;;;;0.00;0.00;;;;;27.91;49.97;100218.44;5072906;28;45510;-69
2021/09/15 03:21:12;;;;;;;;;0.00;0.00;;;;;27.92;49.45;100222.97;5071341;28;45453;-69
2021/09/15 03:23:37;;;;;;;;;0.00;0.00;;;;;27.92;50.11;100217.50;5055246;28;45781;-69
2021/09/15 03:26:04;;;;;;;;;0.67;0.00;;;;;27.91;49.85;100218.44;5076060;28;45449;-69
2021/09/15 03:28:29;;;;;;;;;0.00;0.00;;;;;27.85;50.13;100207.91;5076970;28;45417;-69
2021/09/15 03:30:55;;;;;;;;;0.00;0.00;;;;;27.89;50.14;100214.94;5077072;28;45373;-69
2021/09/15 03:33:20;;;;;;;;;0.00;0.00;;;;;27.90;50.02;100219.44;5076668;28;45521;-68
2021/09/15 03:35:45;;;;;;;;;0.00;0.00;;;;;27.89;49.93;100217.69;5076730;28;45418;-68
2021/09/15 03:38:12;;;;;;;;;0.00;0.00;;;;;27.90;49.42;100216.72;5077068;28;45339;-68
2021/09/15 03:40:37;;;;;;;;;0.00;0.00;;;;;27.87;49.66;100219.63;5077352;28;45756;-69
2021/09/15 03:43:03;;;;;;;;;0.00;0.00;;;;;27.89;50.05;100226.75;5077017;28;46487;-68
2021/09/15 03:45:28;;;;;;;;;0.00;0.00;;;;;27.89;49.84;100225.88;5077099;28;45444;-68
2021/09/15 03:47:53;;;;;;;;;0.00;0.00;;;;;27.87;49.63;100233.31;5077097;28;45574;-68
2021/09/15 03:50:19;;;;;;;;;0.00;0.00;;;;;27.90;50.05;100235.84;5077037;28;45551;-68
2021/09/15 03:52:44;;;;;;;;;0.00;0.00;;;;;27.89;49.72;100236.81;5076667;28;45457;-68
2021/09/15 03:55:10;;;;;;;;;0.00;0.00;;;;;27.87;49.72;100233.31;5076774;28;45531;-68
2021/09/15 03:57:35;;;;;;;;;0.00;0.00;;;;;27.89;49.74;100236.81;5077015;28;45402;-68
2021/09/15 04:00:01;;;;;;;;;0.00;0.00;;;;;27.88;49.50;100235.06;5076805;28;45423;-68
2021/09/15 04:02:26;;;;;;;;;0.00;0.00;;;;;27.88;50.19;100241.41;5076494;28;45946;-68
2021/09/15 04:04:51;;;;;;;;;0.00;0.00;;;;;27.88;49.89;100248.75;5076869;28;45599;-68
2021/09/15 04:07:17;;;;;;;;;0.00;0.00;;;;;27.86;49.60;100239.72;5058308;28;45522;-68
2021/09/15 04:09:42;;;;;;;;;0.00;0.00;;;;;27.85;49.97;100238.81;5076472;28;45530;-69
2021/09/15 04:12:08;;;;;;;;;0.00;0.00;;;;;27.88;50.14;100251.47;5076511;28;45532;-68
2021/09/15 04:14:33;;;;;;;;;0.00;0.00;;;;;27.87;49.40;100250.56;5076278;28;45546;-68
2021/09/15 04:16:59;;;;;;;;;0.00;0.00;;;;;27.87;50.18;100244.22;5076265;28;45674;-68
2021/09/15 04:19:24;;;;;;;;;0.00;0.00;;;;;27.88;49.44;100243.28;5076235;28;45432;-68
2021/09/15 04:21:50;;;;;;;;;0.00;0.00;;;;;27.86;49.58;100237.00;5076091;28;46087;-68
2021/09/15 04:24:34;;;;;;;;;0.00;0.00;;;;;27.86;50.07;100240.59;5057558;28;45411;-68
2021/09/15 04:32:09;;;;;;;;;0.33;0.33;;;;;27.85;49.62;100235.22;5075697;28;45505;-69
2021/09/15 04:34:34;;;;;;;;;0.00;0.00;;;;;27.85;49.83;100237.97;5075764;28;45408;-69
2021/09/15 04:37:01;;;;;;;;;0.00;0.00;;;;;27.84;49.92;100228.03;5074877;28;45342;-69
2021/09/15 04:39:26;;;;;;;;;0.00;0.00;;;;;27.84;49.75;100238.94;5076256;28;45823;-69
2021/09/15 04:41:52;;;;;;;;;0.00;0.00;;;;;27.83;50.25;100238.06;5075526;28;45465;-69
2021/09/15 04:44:17;;;;;;;;;0.00;0.00;;;;;27.83;50.03;100243.50;5075960;28;45670;-69
2021/09/15 04:46:43;;;;;;;;;0.00;0.00;;;;;27.83;49.89;100237.19;5076184;28;45460;-69
2021/09/15 04:49:10;;;;;;;;;0.00;0.00;;;;;27.83;49.78;100242.66;5076271;28;45331;-69
2021/09/15 04:51:36;;;;;;;;;0.00;0.00;;;;;27.81;50.03;100237.28;5075513;28;45959;-69
2021/09/15 04:54:01;;;;;;;;;0.00;0.00;;;;;27.81;49.88;100233.69;5075728;28;45471;-69
2021/09/15 04:56:27;;;;;;;;;0.00;0.00;;;;;27.79;50.01;100241.97;5075781;28;45493;-69
2021/09/15 04:58:52;;;;;;;;;0.00;0.00;;;;;27.82;49.94;100251.84;5075955;28;45445;-70
2021/09/15 05:01:19;;;;;;;;;0.00;0.00;;;;;27.82;49.93;100246.38;5057502;28;45895;-68
2021/09/15 05:03:44;;;;;;;;;0.00;0.00;;;;;27.82;49.66;100243.66;5075704;28;45416;-68
2021/09/15 05:06:09;;;;;;;;;0.00;0.00;;;;;27.81;50.33;100242.75;5075934;28;45424;-68
2021/09/15 05:08:35;;;;;;;;;0.00;0.00;;;;;27.81;50.28;100247.34;5075785;28;45313;-68
2021/09/15 05:11:00;;;;;;;;;0.00;0.00;;;;;27.79;49.66;100241.09;5075101;28;46242;-68
2021/09/15 05:13:25;;;;;;;;;0.00;0.00;;;;;27.78;49.61;100239.34;5075418;28;45446;-68
2021/09/15 05:15:51;;;;;;;;;0.00;0.00;;;;;27.80;49.82;100254.66;5075578;28;45729;-68
2021/09/15 05:18:16;;;;;;;;;0.00;0.00;;;;;27.80;49.91;100249.19;5054095;28;45395;-69
2021/09/15 05:20:41;;;;;;;;;0.00;0.00;;;;;27.78;49.67;100244.81;5075426;28;45748;-69
2021/09/15 05:23:07;;;;;;;;;0.00;0.00;;;;;27.81;50.24;100244.59;5075568;28;45380;-68
2021/09/15 05:25:32;;;;;;;;;0.00;0.00;;;;;27.81;49.76;100252.81;5057054;28;45377;-68
2021/09/15 05:27:58;;;;;;;;;0.00;0.00;;;;;27.80;49.65;100249.19;5075604;28;45592;-69
2021/09/15 05:30:24;;;;;;;;;0.00;0.00;;;;;27.81;49.55;100256.41;5075006;28;45551;-69
2021/09/15 05:32:49;;;;;;;;;0.00;0.00;;;;;27.80;49.76;100262.00;5074988;28;45432;-68
2021/09/15 05:35:21;;;;;;;;;0.00;0.00;;;;;27.81;49.70;100261.00;5074937;28;45411;-69
2021/09/15 05:37:53;;;;;;;;;0.00;0.00;;;;;27.80;49.69;100272.94;5075405;28;45569;-68
2021/09/15 05:40:18;;;;;;;;;0.00;0.00;;;;;27.81;50.24;100266.47;5074605;28;45685;-68
2021/09/15 05:42:44;;;;;;;;;0.00;0.00;;;;;27.78;50.17;100262.09;5075929;28;45520;-69
2021/09/15 05:45:11;;;;;;;;;0.00;0.00;;;;;27.81;49.99;100270.06;5075549;28;45456;-68
2021/09/15 05:47:36;;;;;;;;;0.33;0.00;;;;;27.78;49.74;100264.81;5075571;28;45460;-69
2021/09/15 05:50:02;;;;;;;;;0.00;0.00;;;;;27.78;50.06;100264.81;5075148;28;46337;-68
2021/09/15 05:52:28;;;;;;;;;0.00;0.00;;;;;27.79;50.23;100272.03;5075242;28;45545;-68
2021/09/15 05:54:54;;;;;;;;;0.00;0.00;;;;;27.80;50.28;100270.19;5075454;28;45392;-68
2021/09/15 05:57:19;;;;;;;;;0.00;0.00;;;;;27.79;49.58;100279.34;5075397;28;45476;-68
2021/09/15 05:59:45;;;;;;;;;0.00;0.00;;;;;27.78;50.16;100289.41;5074629;28;46187;-68
2021/09/15 06:02:10;;;;;;;;;0.00;0.00;;;;;27.75;49.86;100278.66;5075292;28;45397;-68
2021/09/15 06:04:35;;;;;;;;;0.00;0.00;;;;;27.77;50.04;100284.91;5057143;28;45392;-69
2021/09/15 06:07:01;;;;;;;;;0.00;0.00;;;;;27.74;49.41;100277.81;5075408;28;45393;-70
2021/09/15 06:09:26;;;;;;;;;0.00;0.00;;;;;27.78;49.84;100283.94;5075242;28;45502;-69
2021/09/15 06:11:51;;;;;;;;;0.00;0.00;;;;;27.78;49.61;100288.53;5075114;28;45577;-68
2021/09/15 06:14:17;;;;;;;;;0.00;0.00;;;;;27.78;49.95;100289.41;5056774;28;45557;-68
2021/09/15 06:16:43;;;;;;;;;0.00;0.00;;;;;27.78;49.80;100296.75;5075235;28;45496;-68
2021/09/15 06:19:08;;;;;;;;;3.67;2.00;;;;;27.66;50.81;100288.34;5073851;28;46096;-68
2021/09/15 06:21:33;;;;;;;;;1.67;1.67;;;;;27.48;51.79;100287.66;5074929;28;45456;-68
2021/09/15 06:23:59;;;;;;;;;4.33;4.33;;;;;27.25;52.49;100297.34;5074843;28;45449;-68
2021/09/15 06:26:25;;;;;;;;;5.00;5.00;;;;;27.05;53.40;100294.94;5074602;28;45458;-68
2021/09/15 06:28:54;;;;;;;;;5.00;5.00;;;;;26.79;53.52;100291.94;5056469;28;46274;-68
2021/09/15 06:31:22;;;;;;;;;6.00;6.00;;;;;26.63;54.13;100296.56;5056254;28;45442;-68
2021/09/15 06:33:48;;;;;;;;;6.00;6.00;;;;;26.45;54.68;100296.66;5074629;28;45859;-69
2021/09/15 06:36:15;;;;;;;;;6.67;6.33;;;;;26.33;55.33;100300.09;5074943;28;45462;-68
2021/09/15 06:38:44;;;;;;;;;6.33;6.33;;;;;26.18;55.85;100295.53;5074860;28;46323;-69
2021/09/15 06:41:18;;;;;;;;;5.67;5.67;;;;;26.12;55.73;100300.41;5074727;28;45459;-69
2021/09/15 06:43:46;;;;;;;;;4.67;4.67;;;;;26.09;56.16;100308.72;5074938;28;45461;-68
2021/09/15 06:46:12;;;;;;;;;6.33;5.33;;;;;26.04;56.72;100307.25;5073688;28;45556;-68
2021/09/15 06:48:37;;;;;;;;;8.67;6.00;;;;;25.97;57.03;100306.72;5073447;28;46003;-68
2021/09/15 06:51:02;;;;;;;;;8.00;7.00;;;;;25.91;57.42;100310.66;5073472;28;45811;-68
2021/09/15 06:53:28;;;;;;;;;6.67;6.67;;;;;25.87;57.38;100310.88;5072036;28;46058;-68
2021/09/15 06:55:55;;;;;;;;;5.67;5.67;;;;;25.83;57.80;100309.31;5072598;28;45466;-68
2021/09/15 06:58:20;;;;;;;;;6.00;6.00;;;;;25.78;57.81;100316.88;5073404;28;45112;-69
2021/09/15 07:00:45;;;;;;;;;6.00;6.00;;;;;25.76;57.39;100314.22;5072040;28;45355;-68
2021/09/15 07:03:11;;;;;;;;;6.67;5.00;;;;;25.73;58.08;100315.28;5071633;28;45357;-68
2021/09/15 07:05:39;;;;;;;;;5.33;5.33;;;;;25.72;57.59;100318.97;5073619;28;45443;-68
2021/09/15 07:08:06;;;;;;;;;4.00;4.00;;;;;25.74;57.10;100317.03;5072624;28;45487;-70
2021/09/15 07:10:35;;;;;;;;;5.00;5.00;;;;;25.80;57.57;100325.84;5073358;28;45877;-69
2021/09/15 07:13:00;;;;;;;;;7.00;7.00;;;;;25.77;58.13;100324.16;5073753;28;45412;-69
2021/09/15 07:15:26;;;;;;;;;7.00;7.00;;;;;25.74;58.16;100333.38;5070360;28;45346;-69
2021/09/15 07:17:53;;;;;;;;;3.67;3.67;;;;;25.72;57.89;100331.72;5072925;28;45972;-69
2021/09/15 07:20:20;;;;;;;;;5.33;5.33;;;;;25.70;58.34;100330.91;5073128;28;45737;-69
2021/09/15 07:22:47;;;;;;;;;6.33;6.33;;;;;25.65;58.72;100328.47;5073957;28;45480;-70
2021/09/15 07:25:13;;;;;;;;;6.00;6.00;;;;;25.63;58.81;100341.28;5073434;28;45554;-70
2021/09/15 07:27:39;;;;;;;;;7.00;7.00;;;;;25.59;59.12;100336.94;5073788;28;45578;-68
2021/09/15 07:30:05;;;;;;;;;6.67;6.67;;;;;25.53;59.05;100340.91;5072664;28;45416;-68
2021/09/15 07:32:31;;;;;;;;;10.00;9.67;;;;;25.52;59.11;100338.25;5053011;28;45330;-68
2021/09/15 07:34:56;;;;;;;;;7.33;6.67;;;;;25.51;59.29;100350.09;5073349;28;45728;-68
2021/09/15 07:37:22;;;;;;;;;8.00;7.67;;;;;25.47;59.44;100346.69;5073325;28;46159;-69
2021/09/15 07:39:47;;;;;;;;;7.00;7.00;;;;;25.46;59.60;100344.91;5073194;28;45414;-68
2021/09/15 07:42:13;;;;;;;;;8.33;8.33;;;;;25.47;59.50;100351.22;5072796;28;45505;-68
2021/09/15 07:44:39;;;;;;;;;5.00;4.33;;;;;25.48;60.04;100342.97;5073364;28;45407;-69
2021/09/15 07:47:04;;;;;;;;;6.67;6.67;;;;;25.48;59.68;100339.38;5071229;28;47064;-69
2021/09/15 07:49:30;;;;;;;;;7.67;5.00;;;;;25.56;59.60;100339.84;5072729;28;45464;-68
2021/09/15 07:51:55;;;;;;;;;7.33;7.33;;;;;25.58;59.87;100343.38;5073054;28;45403;-69
2021/09/15 07:54:21;;;;;;;;;6.00;6.00;;;;;25.63;59.61;100345.81;5071827;28;45517;-70
2021/09/15 07:56:46;;;;;;;;;6.00;5.33;;;;;25.62;59.63;100339.50;5072906;28;45444;-70
2021/09/15 07:59:15;;;;;;;;;5.33;5.33;;;;;25.64;59.60;100348.47;5071770;28;45448;-68
2021/09/15 08:01:40;;;;;;;;;3.33;3.33;;;;;25.62;59.30;100350.41;5072164;28;45399;-67
2021/09/15 08:04:05;;;;;;;;;4.67;4.67;;;;;25.64;59.38;100358.50;5073385;28;45395;-69
2021/09/15 08:06:31;;;;;;;;;7.00;7.00;;;;;25.62;59.84;100344.06;5072648;28;45497;-68
2021/09/15 08:08:56;;;;;;;;;9.33;8.67;;;;;25.61;59.57;100354.09;5071452;28;45400;-69
2021/09/15 08:11:22;;;;;;;;;8.00;6.67;;;;;25.61;59.79;100355.91;5054876;28;45413;-70
2021/09/15 08:13:48;;;;;;;;;5.33;5.33;;;;;25.56;60.16;100350.72;5077407;28;45800;-69
2021/09/15 08:16:13;;;;;;;;;10.00;7.67;;;;;25.57;60.41;100366.09;5076408;28;46391;-68
2021/09/15 08:18:39;;;;;;;;;7.67;7.67;;;;;25.56;60.04;100367.06;5075397;28;45411;-68
2021/09/15 08:21:06;;;;;;;;;5.00;5.00;;;;;25.55;60.21;100365.28;5058402;28;45562;-69
2021/09/15 08:23:32;;;;;;;;;7.33;6.67;;;;;25.57;60.26;100365.22;5077597;28;45369;-69
2021/09/15 08:25:57;;;;;;;;;10.33;6.67;;;;;25.57;60.26;100360.66;5076751;28;45428;-70
2021/09/15 08:28:23;;;;;;;;;9.00;9.00;;;;;25.54;60.32;100358.97;5076529;28;45519;-70
2021/09/15 08:30:49;;;;;;;;;8.00;8.00;;;;;25.51;60.54;100366.44;5056692;28;45241;-70
2021/09/15 08:33:15;;;;;;;;;6.00;5.33;;;;;25.50;60.42;100372.84;5074617;28;45370;-68
2021/09/15 08:35:41;;;;;;;;;6.67;6.67;;;;;25.51;60.76;100369.16;5075112;28;45458;-69
2021/09/15 08:38:11;;;;;;;;;8.00;8.00;;;;;25.46;61.09;100368.53;5076351;28;45737;-69
2021/09/15 08:40:38;;;;;;;;;6.33;6.33;;;;;25.44;61.24;100367.75;5041960;28;45543;-69
2021/09/15 08:43:04;;;;;;;;;9.00;9.00;;;;;25.39;61.50;100369.81;5058451;28;45782;-69
2021/09/15 08:45:29;;;;;;;;;8.00;6.00;;;;;25.40;61.19;100374.31;5076043;28;45398;-69
2021/09/15 08:47:56;;;;;;;;;12.00;10.33;;;;;25.39;61.30;100372.53;5076482;28;44998;-69
2021/09/15 08:50:22;;;;;;;;;4.00;4.00;;;;;25.47;61.06;100370.28;5076585;28;45359;-70
2021/09/15 08:52:48;;;;;;;;;9.00;9.00;;;;;25.50;61.13;100372.84;5075461;28;45424;-69
2021/09/15 08:55:14;;;;;;;;;6.33;6.33;;;;;25.57;60.56;100385.16;5038594;28;45664;-69
2021/09/15 08:57:41;;;;;;;;;5.67;5.67;;;;;25.60;60.73;100386.84;5035610;28;45566;-69
2021/09/15 09:00:08;;;;;;;;;7.00;7.00;;;;;25.59;60.47;100385.09;5035754;28;45674;-70
2021/09/15 09:02:40;;;;;;;;;8.00;7.33;;;;;25.54;60.89;100383.50;5031357;28;45652;-69
2021/09/15 09:05:06;;;;;;;;;6.00;6.00;;;;;25.53;60.73;100387.19;5036358;28;46699;-69
2021/09/15 09:07:33;;;;;;;;;13.00;11.00;;;;;25.52;61.16;100381.81;5036231;28;45651;-69
2021/09/15 09:10:08;;;;;;;;;9.00;8.00;;;;;25.51;61.32;100388.22;5045610;28;45755;-69
2021/09/15 09:12:36;;;;;;;;;7.33;7.33;;;;;25.53;61.17;100386.28;5056820;28;45662;-70
2021/09/15 09:15:23;;;;;;;;;8.00;5.67;;;;;25.51;60.87;100386.41;5056086;28;46180;-69
2021/09/15 09:17:49;;;;;;;;;5.33;5.33;;;;;25.50;61.20;100387.34;5052893;28;45474;-68
2021/09/15 09:20:35;;;;;;;;;6.00;6.00;;;;;25.52;60.98;100388.13;5044802;28;45531;-69
2021/09/15 09:23:07;;;;;;;;;9.00;9.00;;;;;25.56;60.90;100391.59;5034965;28;45475;-69
2021/09/15 09:25:40;;;;;;;;;7.33;7.33;;;;;25.56;61.08;100391.59;5035022;28;45527;-69
2021/09/15 09:28:24;;;;;;;;;6.00;6.00;;;;;25.55;61.12;100395.25;5055988;28;45462;-73
2021/09/15 09:31:17;;;;;;;;;5.00;5.00;;;;;25.62;60.66;100393.09;5057000;28;45428;-71
2021/09/15 09:33:43;;;;;;;;;4.33;3.33;;;;;25.68;60.24;100387.31;5061845;28;44883;-68
2021/09/15 09:36:10;;;;;;;;;5.67;4.33;;;;;25.80;60.00;100396.66;5058219;28;45487;-70
2021/09/15 09:38:48;;;;;;;;;3.00;3.00;;;;;25.90;59.60;100389.78;5063727;28;45343;-74
2021/09/15 09:41:51;;;;;;;;;5.00;4.33;;;;;26.01;59.73;100408.25;5057766;28;45402;-70
2021/09/15 09:44:27;;;;;;;;;11.67;7.67;;;;;26.06;59.35;100412.47;5018938;28;45404;-69
2021/09/15 09:46:52;;;;;;;;;4.67;4.67;;;;;26.04;58.99;100402.63;5048162;28;45505;-69
2021/09/15 09:49:17;;;;;;;;;11.00;10.67;;;;;26.05;59.43;100404.38;5049526;28;45743;-68
2021/09/15 09:51:44;;;;;;;;;4.67;4.67;;;;;26.06;58.95;100406.16;5075854;28;45334;-69
2021/09/15 09:54:29;;;;;;;;;4.00;4.00;;;;;26.08;59.33;100402.38;5075915;28;45527;-68
2021/09/15 09:56:57;;;;;;;;;6.67;6.67;;;;;26.13;59.26;100393.94;5062255;28;46162;-67
2021/09/15 09:59:27;;;;;;;;;7.00;7.00;;;;;26.16;58.98;100404.69;5053317;28;45657;-67
2021/09/15 10:01:57;;;;;;;;;11.33;10.33;;;;;26.13;59.26;100394.81;5063843;28;45975;-67
2021/09/15 10:04:24;;;;;;;;;9.00;6.67;;;;;26.07;58.94;100395.16;5056853;28;45764;-66
2021/09/15 10:06:50;;;;;;;;;5.33;5.33;;;;;26.04;59.11;100383.56;5052517;28;47048;-68
2021/09/15 10:09:15;;;;;;;;;10.67;9.00;;;;;26.09;59.31;100395.94;5074088;28;45476;-68
2021/09/15 10:11:42;;;;;;;;;7.00;5.33;;;;;26.09;59.52;100392.34;5074929;28;45701;-67
2021/09/15 10:14:14;;;;;;;;;7.67;7.67;;;;;26.11;59.17;100396.72;5044661;28;45611;-68
2021/09/15 10:16:55;;;;;;;;;9.33;9.33;;;;;26.08;58.86;100396.94;5034111;28;45445;-68
2021/09/15 10:19:31;;;;;;;;;9.00;9.00;;;;;26.09;58.96;100398.66;5016040;28;45466;-66
2021/09/15 10:22:01;;;;;;;;;3.00;3.00;;;;;26.12;59.04;100398.50;5034207;28;45525;-68
2021/09/15 10:25:06;;;;;;;;;8.33;8.33;;;;;26.13;58.92;100394.81;5044075;28;45732;-69
2021/09/15 10:27:51;;;;;;;;;5.33;5.33;;;;;26.12;59.59;100398.50;4952818;28;46048;-70
2021/09/15 10:30:17;;;;;;;;;7.33;7.33;;;;;26.08;59.08;100401.50;4953747;28;45441;-69
2021/09/15 10:32:48;;;;;;;;;8.33;8.33;;;;;26.06;58.87;100403.44;4952823;28;44851;-68
2021/09/15 10:35:41;;;;;;;;;11.00;10.67;;;;;26.04;59.17;100405.38;4952668;28;45838;-67
2021/09/15 10:38:17;;;;;;;;;7.00;7.00;;;;;26.03;59.31;100409.91;4952589;28;45490;-67
2021/09/15 10:40:44;;;;;;;;;8.00;8.00;;;;;25.97;59.26;100396.63;4952879;28;45570;-67
2021/09/15 10:43:41;;;;;;;;;9.33;8.00;;;;;26.00;59.51;100404.66;4925932;28;45654;-68
2021/09/15 10:46:18;;;;;;;;;7.00;7.00;;;;;26.03;59.58;100396.28;4967021;28;45492;-68
2021/09/15 10:48:43;;;;;;;;;13.00;12.33;;;;;26.08;59.07;100394.19;4951049;28;46539;-68
2021/09/15 10:51:21;;;;;;;;;8.67;7.67;;;;;26.12;58.84;100398.50;4935392;28;45397;-68
2021/09/15 10:53:50;;;;;;;;;15.67;12.67;;;;;26.13;59.03;100393.94;4951217;28;45525;-68
2021/09/15 10:56:35;;;;;;;;;11.33;10.67;;;;;26.13;58.77;100397.53;4936840;28;45433;-69
2021/09/15 10:59:01;;;;;;;;;6.33;6.33;;;;;26.13;58.93;100394.81;5017850;28;46422;-68
2021/09/15 11:01:46;;;;;;;;;6.67;6.33;;;;;26.23;58.76;100410.66;5047189;28;45934;-68
2021/09/15 11:04:33;;;;;;;;;10.00;10.00;;;;;26.26;58.82;100410.50;5035746;28;45566;-68
2021/09/15 11:06:59;;;;;;;;;6.67;6.67;;;;;26.27;58.87;100396.75;5035921;28;45473;-68
2021/09/15 11:09:38;;;;;;;;;14.33;12.00;;;;;26.32;58.69;100404.69;5035074;28;45528;-68
2021/09/15 11:12:04;;;;;;;;;12.00;10.67;;;;;26.31;58.20;100400.19;5034359;28;45458;-68
2021/09/15 11:14:55;;;;;;;;;8.33;7.00;;;;;26.34;58.13;100397.31;5047120;28;45654;-67
2021/09/15 11:17:21;;;;;;;;;7.00;7.00;;;;;26.38;58.43;100398.88;5053902;28;45512;-68
2021/09/15 11:19:47;;;;;;;;;4.00;4.00;;;;;26.42;58.02;100405.91;5040467;28;46522;-68
2021/09/15 11:22:14;;;;;;;;;7.67;7.67;;;;;26.46;57.70;100412.97;5034687;28;45437;-67
2021/09/15 11:24:39;;;;;;;;;8.33;8.33;;;;;26.45;58.12;100403.00;5054457;28;45435;-73
2021/09/15 11:27:07;;;;;;;;;8.67;8.67;;;;;26.48;58.04;100411.03;5034949;28;45390;-68
2021/09/15 11:29:43;;;;;;;;;8.00;8.00;;;;;26.53;57.64;100408.03;5035473;28;45982;-68
2021/09/15 11:32:15;;;;;;;;;9.33;8.00;;;;;26.53;57.67;100408.88;5016243;28;45754;-68